sensor_id;sensor_type;location;lat;lon;timestamp;temperature;humidity
10901;DHT22;5503;53.208;10.392;2022-12-18T00:07:23;-4.50;1.00
10901;DHT22;5503;53.208;10.392;2022-12-18T00:41:50;-4.30;1.00
10901;DHT22;5503;53.208;10.392;2022-12-18T00:56:53;-4.10;1.00
10901;DHT22;5503;53.208;10.392;2022-12-18T01:14:06;-4.10;99.90
10901;DHT22;5503;53.208;10.392;2022-12-18T01:23:56;-4.60;1.00
10901;DHT22;5503;53.208;10.392;2022-12-18T01:26:24;-4.80;74.50
10901;DHT22;5503;53.208;10.392;2022-12-18T01:28:54;-4.90;99.90
10901;DHT22;5503;53.208;10.392;2022-12-18T01:31:26;-4.90;1.00
10901;DHT22;5503;53.208;10.392;2022-12-18T01:36:23;-5.00;1.00
10901;DHT22;5503;53.208;10.392;2022-12-18T01:38:51;-5.10;99.90
10901;DHT22;5503;53.208;10.392;2022-12-18T01:41:20;-5.20;1.00
10901;DHT22;5503;53.208;10.392;2022-12-18T01:43:51;-5.30;1.00
10901;DHT22;5503;53.208;10.392;2022-12-18T01:46:21;-5.20;1.00
10901;DHT22;5503;53.208;10.392;2022-12-18T01:48:55;-5.20;63.40
10901;DHT22;5503;53.208;10.392;2022-12-18T01:56:19;-5.00;1.00
10901;DHT22;5503;53.208;10.392;2022-12-18T01:58:53;-4.70;1.00
10901;DHT22;5503;53.208;10.392;2022-12-18T02:01:22;-4.70;1.00
10901;DHT22;5503;53.208;10.392;2022-12-18T02:06:22;-4.70;1.00
10901;DHT22;5503;53.208;10.392;2022-12-18T02:09:01;-4.70;1.00
10901;DHT22;5503;53.208;10.392;2022-12-18T02:11:39;-4.80;1.00
10901;DHT22;5503;53.208;10.392;2022-12-18T02:14:17;-5.60;1.00
10901;DHT22;5503;53.208;10.392;2022-12-18T02:16:48;-4.80;1.00
10901;DHT22;5503;53.208;10.392;2022-12-18T02:22:17;-4.60;1.00
10901;DHT22;5503;53.208;10.392;2022-12-18T02:24:59;-4.50;99.90
10901;DHT22;5503;53.208;10.392;2022-12-18T02:27:29;-4.50;99.90
10901;DHT22;5503;53.208;10.392;2022-12-18T02:29:59;-5.30;99.90
10901;DHT22;5503;53.208;10.392;2022-12-18T02:32:29;-5.40;1.00
10901;DHT22;5503;53.208;10.392;2022-12-18T02:34:58;-5.60;1.00
10901;DHT22;5503;53.208;10.392;2022-12-18T02:37:27;-5.50;1.00
10901;DHT22;5503;53.208;10.392;2022-12-18T02:39:56;-5.70;1.00
10901;DHT22;5503;53.208;10.392;2022-12-18T02:44:56;-5.70;81.10
10901;DHT22;5503;53.208;10.392;2022-12-18T02:47:24;-5.70;63.30
10901;DHT22;5503;53.208;10.392;2022-12-18T02:49:59;-5.40;1.00
10901;DHT22;5503;53.208;10.392;2022-12-18T02:52:32;-5.70;1.00
10901;DHT22;5503;53.208;10.392;2022-12-18T02:55:12;-3.70;1.00
10901;DHT22;5503;53.208;10.392;2022-12-18T02:57:45;-5.70;1.00
10901;DHT22;5503;53.208;10.392;2022-12-18T03:00:17;-5.80;66.30
10901;DHT22;5503;53.208;10.392;2022-12-18T03:02:48;-5.90;99.90
10901;DHT22;5503;53.208;10.392;2022-12-18T03:05:20;-5.60;38.50
10901;DHT22;5503;53.208;10.392;2022-12-18T03:07:56;-5.50;1.00
10901;DHT22;5503;53.208;10.392;2022-12-18T03:10:26;-3.80;1.00
10901;DHT22;5503;53.208;10.392;2022-12-18T03:12:58;-5.80;1.00
10901;DHT22;5503;53.208;10.392;2022-12-18T03:15:31;-5.70;9.30
10901;DHT22;5503;53.208;10.392;2022-12-18T03:18:02;-5.80;1.00
10901;DHT22;5503;53.208;10.392;2022-12-18T03:20:32;-5.90;65.50
10901;DHT22;5503;53.208;10.392;2022-12-18T03:23:06;-5.90;96.40
10901;DHT22;5503;53.208;10.392;2022-12-18T03:25:35;-2.90;99.90
10901;DHT22;5503;53.208;10.392;2022-12-18T03:28:03;-5.70;99.90
10901;DHT22;5503;53.208;10.392;2022-12-18T03:30:37;-8.80;99.90
10901;DHT22;5503;53.208;10.392;2022-12-18T03:33:07;-6.20;99.90
10901;DHT22;5503;53.208;10.392;2022-12-18T03:35:39;-4.80;99.90
10901;DHT22;5503;53.208;10.392;2022-12-18T03:38:07;-5.90;99.90
10901;DHT22;5503;53.208;10.392;2022-12-18T03:40:43;-5.80;99.90
10901;DHT22;5503;53.208;10.392;2022-12-18T03:43:16;-5.60;1.00
10901;DHT22;5503;53.208;10.392;2022-12-18T03:45:52;-5.60;1.00
10901;DHT22;5503;53.208;10.392;2022-12-18T03:48:26;-5.50;1.00
10901;DHT22;5503;53.208;10.392;2022-12-18T03:50:57;-5.50;1.00
10901;DHT22;5503;53.208;10.392;2022-12-18T03:53:32;-5.50;1.00
10901;DHT22;5503;53.208;10.392;2022-12-18T03:56:04;-5.70;1.00
10901;DHT22;5503;53.208;10.392;2022-12-18T03:58:32;-6.00;99.90
10901;DHT22;5503;53.208;10.392;2022-12-18T04:01:04;-6.00;93.00
10901;DHT22;5503;53.208;10.392;2022-12-18T04:03:36;-6.00;5.70
10901;DHT22;5503;53.208;10.392;2022-12-18T04:06:04;-6.00;7.30
10901;DHT22;5503;53.208;10.392;2022-12-18T04:13:29;-5.80;1.00
10901;DHT22;5503;53.208;10.392;2022-12-18T04:18:25;-4.00;1.00
10901;DHT22;5503;53.208;10.392;2022-12-18T04:33:09;-5.70;99.90
10901;DHT22;5503;53.208;10.392;2022-12-18T04:35:38;-3.60;99.90
10901;DHT22;5503;53.208;10.392;2022-12-18T04:38:05;-6.10;1.00
10901;DHT22;5503;53.208;10.392;2022-12-18T04:40:37;-5.70;1.00
10901;DHT22;5503;53.208;10.392;2022-12-18T04:50:27;-6.40;1.00
10901;DHT22;5503;53.208;10.392;2022-12-18T04:52:56;-6.40;1.00
10901;DHT22;5503;53.208;10.392;2022-12-18T04:55:26;-6.30;1.00
10901;DHT22;5503;53.208;10.392;2022-12-18T05:00:21;-6.00;1.00
10901;DHT22;5503;53.208;10.392;2022-12-18T05:10:11;-6.10;99.90
10901;DHT22;5503;53.208;10.392;2022-12-18T05:15:24;-6.20;99.90
10901;DHT22;5503;53.208;10.392;2022-12-18T05:25:14;-6.20;99.90
10901;DHT22;5503;53.208;10.392;2022-12-18T05:30:09;-6.30;1.00
10901;DHT22;5503;53.208;10.392;2022-12-18T05:35:05;-6.60;1.00
10901;DHT22;5503;53.208;10.392;2022-12-18T05:40:00;-6.30;1.00
10901;DHT22;5503;53.208;10.392;2022-12-18T05:42:29;-6.10;99.90
10901;DHT22;5503;53.208;10.392;2022-12-18T05:57:11;-6.20;1.00
10901;DHT22;5503;53.208;10.392;2022-12-18T05:59:39;-6.30;1.00
10901;DHT22;5503;53.208;10.392;2022-12-18T06:07:03;-6.30;1.00
10901;DHT22;5503;53.208;10.392;2022-12-18T06:16:54;-6.40;99.90
10901;DHT22;5503;53.208;10.392;2022-12-18T06:21:49;-6.40;99.90
10901;DHT22;5503;53.208;10.392;2022-12-18T06:34:06;-6.20;1.00
10901;DHT22;5503;53.208;10.392;2022-12-18T06:48:50;-6.30;99.90
10901;DHT22;5503;53.208;10.392;2022-12-18T06:51:19;-6.20;1.00
10901;DHT22;5503;53.208;10.392;2022-12-18T06:58:41;-6.50;1.00
10901;DHT22;5503;53.208;10.392;2022-12-18T07:01:09;-6.70;99.90
10901;DHT22;5503;53.208;10.392;2022-12-18T07:03:37;-6.90;75.00
10901;DHT22;5503;53.208;10.392;2022-12-18T07:08:33;-6.90;45.50
10901;DHT22;5503;53.208;10.392;2022-12-18T07:11:03;-7.20;99.90
10901;DHT22;5503;53.208;10.392;2022-12-18T07:16:06;-4.90;99.90
10901;DHT22;5503;53.208;10.392;2022-12-18T07:21:03;-6.80;1.00
10901;DHT22;5503;53.208;10.392;2022-12-18T07:23:34;-6.80;1.00
10901;DHT22;5503;53.208;10.392;2022-12-18T07:26:02;-7.00;99.90
10901;DHT22;5503;53.208;10.392;2022-12-18T07:40:47;-6.60;1.00
10901;DHT22;5503;53.208;10.392;2022-12-18T07:55:31;-6.90;46.00
10901;DHT22;5503;53.208;10.392;2022-12-18T07:58:02;-6.80;99.90
10901;DHT22;5503;53.208;10.392;2022-12-18T08:15:14;-6.70;1.00
10901;DHT22;5503;53.208;10.392;2022-12-18T08:20:09;-6.80;1.00
10901;DHT22;5503;53.208;10.392;2022-12-18T08:22:39;-6.70;99.90
10901;DHT22;5503;53.208;10.392;2022-12-18T08:25:07;-6.90;1.00
10901;DHT22;5503;53.208;10.392;2022-12-18T08:32:30;-7.00;1.00
10901;DHT22;5503;53.208;10.392;2022-12-18T08:47:34;-7.20;1.00
10901;DHT22;5503;53.208;10.392;2022-12-18T08:52:31;-6.90;99.90
10901;DHT22;5503;53.208;10.392;2022-12-18T09:02:23;-6.70;99.90
10901;DHT22;5503;53.208;10.392;2022-12-18T09:39:17;-3.00;1.00
10901;DHT22;5503;53.208;10.392;2022-12-18T09:41:46;-5.40;1.00
10901;DHT22;5503;53.208;10.392;2022-12-18T09:44:24;-5.20;1.00
10901;DHT22;5503;53.208;10.392;2022-12-18T09:47:24;-5.40;1.00
10901;DHT22;5503;53.208;10.392;2022-12-18T09:49:55;-5.40;1.00
10901;DHT22;5503;53.208;10.392;2022-12-18T09:52:27;-5.20;1.00
10901;DHT22;5503;53.208;10.392;2022-12-18T09:55:03;-5.30;1.00
10901;DHT22;5503;53.208;10.392;2022-12-18T09:57:33;-5.10;1.00
10901;DHT22;5503;53.208;10.392;2022-12-18T10:00:09;-5.10;1.00
10901;DHT22;5503;53.208;10.392;2022-12-18T10:05:12;-4.50;1.00
10901;DHT22;5503;53.208;10.392;2022-12-18T10:07:59;-4.90;1.00
10901;DHT22;5503;53.208;10.392;2022-12-18T10:10:38;-5.00;1.00
10901;DHT22;5503;53.208;10.392;2022-12-18T10:13:13;-4.90;1.00
10901;DHT22;5503;53.208;10.392;2022-12-18T10:15:51;-4.80;1.00
10901;DHT22;5503;53.208;10.392;2022-12-18T10:18:31;-4.50;1.00
10901;DHT22;5503;53.208;10.392;2022-12-18T10:21:05;-4.30;1.00
10901;DHT22;5503;53.208;10.392;2022-12-18T10:23:42;-4.40;1.00
10901;DHT22;5503;53.208;10.392;2022-12-18T10:26:13;-4.50;99.90
10901;DHT22;5503;53.208;10.392;2022-12-18T10:28:41;-4.40;1.00
10901;DHT22;5503;53.208;10.392;2022-12-18T10:31:14;-4.20;1.00
10901;DHT22;5503;53.208;10.392;2022-12-18T10:33:42;-4.00;99.90
10901;DHT22;5503;53.208;10.392;2022-12-18T10:41:06;-3.60;99.90
10901;DHT22;5503;53.208;10.392;2022-12-18T10:43:39;-3.60;1.00
10901;DHT22;5503;53.208;10.392;2022-12-18T10:46:14;-3.70;99.90
10901;DHT22;5503;53.208;10.392;2022-12-18T10:48:51;-3.60;1.00
10901;DHT22;5503;53.208;10.392;2022-12-18T10:51:24;-3.60;1.00
10901;DHT22;5503;53.208;10.392;2022-12-18T10:53:54;-3.60;1.00
10901;DHT22;5503;53.208;10.392;2022-12-18T10:58:58;-3.30;1.00
10901;DHT22;5503;53.208;10.392;2022-12-18T11:04:13;-2.10;99.90
10901;DHT22;5503;53.208;10.392;2022-12-18T11:06:59;-3.30;1.00
10901;DHT22;5503;53.208;10.392;2022-12-18T11:09:28;-3.40;99.90
10901;DHT22;5503;53.208;10.392;2022-12-18T11:11:56;-3.40;1.00
10901;DHT22;5503;53.208;10.392;2022-12-18T11:14:27;-3.30;1.00
10901;DHT22;5503;53.208;10.392;2022-12-18T11:16:55;0.10;1.00
10901;DHT22;5503;53.208;10.392;2022-12-18T11:19:32;-3.60;1.00
10901;DHT22;5503;53.208;10.392;2022-12-18T11:22:00;-3.60;1.00
10901;DHT22;5503;53.208;10.392;2022-12-18T11:24:30;-3.60;99.90
10901;DHT22;5503;53.208;10.392;2022-12-18T11:26:59;-3.30;1.00
10901;DHT22;5503;53.208;10.392;2022-12-18T11:29:32;-3.30;99.90
10901;DHT22;5503;53.208;10.392;2022-12-18T11:35:03;-3.10;1.00
10901;DHT22;5503;53.208;10.392;2022-12-18T11:37:32;-3.00;45.70
10901;DHT22;5503;53.208;10.392;2022-12-18T11:40:03;-2.90;1.00
10901;DHT22;5503;53.208;10.392;2022-12-18T11:42:38;-3.00;1.00
10901;DHT22;5503;53.208;10.392;2022-12-18T11:45:29;-2.90;99.90
10901;DHT22;5503;53.208;10.392;2022-12-18T11:48:03;-3.00;99.90
10901;DHT22;5503;53.208;10.392;2022-12-18T11:50:38;-3.00;1.00
10901;DHT22;5503;53.208;10.392;2022-12-18T11:53:11;-2.70;1.00
10901;DHT22;5503;53.208;10.392;2022-12-18T11:55:43;-2.70;1.00
10901;DHT22;5503;53.208;10.392;2022-12-18T11:58:23;-2.80;85.90
10901;DHT22;5503;53.208;10.392;2022-12-18T12:00:59;-2.70;1.00
10901;DHT22;5503;53.208;10.392;2022-12-18T12:04:04;-2.70;1.00
10901;DHT22;5503;53.208;10.392;2022-12-18T12:06:45;-2.60;99.90
10901;DHT22;5503;53.208;10.392;2022-12-18T12:09:20;-2.60;99.90
10901;DHT22;5503;53.208;10.392;2022-12-18T12:12:00;-2.80;99.90
10901;DHT22;5503;53.208;10.392;2022-12-18T12:14:43;-2.90;99.90
10901;DHT22;5503;53.208;10.392;2022-12-18T12:17:19;-3.00;99.90
10901;DHT22;5503;53.208;10.392;2022-12-18T12:19:53;-3.10;1.00
10901;DHT22;5503;53.208;10.392;2022-12-18T12:22:29;-3.10;99.90
10901;DHT22;5503;53.208;10.392;2022-12-18T12:25:20;-3.10;1.00
10901;DHT22;5503;53.208;10.392;2022-12-18T12:27:56;0.50;1.00
10901;DHT22;5503;53.208;10.392;2022-12-18T12:30:32;-3.20;1.00
10901;DHT22;5503;53.208;10.392;2022-12-18T12:33:09;-3.10;31.50
10901;DHT22;5503;53.208;10.392;2022-12-18T12:35:46;-3.30;1.00
10901;DHT22;5503;53.208;10.392;2022-12-18T12:38:17;-3.00;99.90
10901;DHT22;5503;53.208;10.392;2022-12-18T12:40:49;-2.90;1.00
10901;DHT22;5503;53.208;10.392;2022-12-18T12:43:26;-2.80;1.00
10901;DHT22;5503;53.208;10.392;2022-12-18T12:45:55;-2.70;99.90
10901;DHT22;5503;53.208;10.392;2022-12-18T12:48:40;-2.80;1.00
10901;DHT22;5503;53.208;10.392;2022-12-18T12:51:12;-2.80;1.00
10901;DHT22;5503;53.208;10.392;2022-12-18T12:56:10;-2.70;99.90
10901;DHT22;5503;53.208;10.392;2022-12-18T12:58:45;-2.80;94.60
10901;DHT22;5503;53.208;10.392;2022-12-18T13:01:20;-2.60;1.00
10901;DHT22;5503;53.208;10.392;2022-12-18T13:03:57;-2.40;99.90
10901;DHT22;5503;53.208;10.392;2022-12-18T13:06:40;-2.50;99.90
10901;DHT22;5503;53.208;10.392;2022-12-18T13:11:38;-2.40;99.90
10901;DHT22;5503;53.208;10.392;2022-12-18T13:14:26;-2.40;99.90
10901;DHT22;5503;53.208;10.392;2022-12-18T13:17:14;-2.50;1.00
10901;DHT22;5503;53.208;10.392;2022-12-18T13:19:43;-2.60;99.90
10901;DHT22;5503;53.208;10.392;2022-12-18T13:22:21;-2.30;99.90
10901;DHT22;5503;53.208;10.392;2022-12-18T13:27:45;-2.80;99.90
10901;DHT22;5503;53.208;10.392;2022-12-18T13:36:32;1.10;97.70
10901;DHT22;5503;53.208;10.392;2022-12-18T13:39:32;-2.50;1.00
10901;DHT22;5503;53.208;10.392;2022-12-18T13:42:48;-2.60;99.90
10901;DHT22;5503;53.208;10.392;2022-12-18T13:45:42;-2.70;99.90
10901;DHT22;5503;53.208;10.392;2022-12-18T13:48:18;-2.80;99.90
10901;DHT22;5503;53.208;10.392;2022-12-18T13:50:53;-5.50;99.90
10901;DHT22;5503;53.208;10.392;2022-12-18T13:53:26;-2.80;1.00
10901;DHT22;5503;53.208;10.392;2022-12-18T14:03:18;-2.80;1.00
10901;DHT22;5503;53.208;10.392;2022-12-18T14:08:14;-2.90;99.90
10901;DHT22;5503;53.208;10.392;2022-12-18T14:10:45;-2.90;87.40
10901;DHT22;5503;53.208;10.392;2022-12-18T14:13:19;-2.90;99.90
10901;DHT22;5503;53.208;10.392;2022-12-18T14:15:48;-2.90;60.50
10901;DHT22;5503;53.208;10.392;2022-12-18T14:18:20;-2.90;1.00
10901;DHT22;5503;53.208;10.392;2022-12-18T14:20:50;-2.80;95.80
10901;DHT22;5503;53.208;10.392;2022-12-18T14:23:31;-2.80;99.90
10901;DHT22;5503;53.208;10.392;2022-12-18T14:26:01;-3.00;99.90
10901;DHT22;5503;53.208;10.392;2022-12-18T14:33:25;-0.50;1.00
10901;DHT22;5503;53.208;10.392;2022-12-18T14:35:55;-3.00;1.00
10901;DHT22;5503;53.208;10.392;2022-12-18T14:38:28;-2.90;1.00
10901;DHT22;5503;53.208;10.392;2022-12-18T14:40:57;-3.10;1.00
10901;DHT22;5503;53.208;10.392;2022-12-18T14:43:31;-3.10;1.00
10901;DHT22;5503;53.208;10.392;2022-12-18T14:45:58;-3.00;1.00
10901;DHT22;5503;53.208;10.392;2022-12-18T14:48:35;-3.10;1.00
10901;DHT22;5503;53.208;10.392;2022-12-18T14:51:05;-3.10;1.00
10901;DHT22;5503;53.208;10.392;2022-12-18T14:53:39;-3.10;1.00
10901;DHT22;5503;53.208;10.392;2022-12-18T14:56:17;-3.00;1.00
10901;DHT22;5503;53.208;10.392;2022-12-18T14:58:49;-3.10;1.00
10901;DHT22;5503;53.208;10.392;2022-12-18T15:01:22;-3.00;1.00
10901;DHT22;5503;53.208;10.392;2022-12-18T15:06:26;-3.20;81.00
10901;DHT22;5503;53.208;10.392;2022-12-18T15:11:30;-3.10;92.60
10901;DHT22;5503;53.208;10.392;2022-12-18T15:14:00;-3.10;95.10
10901;DHT22;5503;53.208;10.392;2022-12-18T15:23:50;-3.30;99.90
10901;DHT22;5503;53.208;10.392;2022-12-18T15:26:18;-3.40;99.90
10901;DHT22;5503;53.208;10.392;2022-12-18T15:28:47;-3.40;99.90
10901;DHT22;5503;53.208;10.392;2022-12-18T15:31:29;-3.20;99.90
10901;DHT22;5503;53.208;10.392;2022-12-18T15:34:12;-3.20;99.90
10901;DHT22;5503;53.208;10.392;2022-12-18T15:41:35;-3.20;99.90
10901;DHT22;5503;53.208;10.392;2022-12-18T15:44:03;-3.30;99.90
10901;DHT22;5503;53.208;10.392;2022-12-18T15:46:44;-3.30;99.90
10901;DHT22;5503;53.208;10.392;2022-12-18T15:51:38;-3.10;99.90
10901;DHT22;5503;53.208;10.392;2022-12-18T15:54:10;-3.00;99.90
10901;DHT22;5503;53.208;10.392;2022-12-18T16:01:52;-2.90;99.90
10901;DHT22;5503;53.208;10.392;2022-12-18T16:04:21;-3.00;99.90
10901;DHT22;5503;53.208;10.392;2022-12-18T16:06:49;-3.00;99.90
10901;DHT22;5503;53.208;10.392;2022-12-18T16:14:18;-2.90;99.90
10901;DHT22;5503;53.208;10.392;2022-12-18T16:19:14;-1.50;99.90
10901;DHT22;5503;53.208;10.392;2022-12-18T16:21:41;-3.10;99.90
10901;DHT22;5503;53.208;10.392;2022-12-18T16:24:13;-3.10;99.90
10901;DHT22;5503;53.208;10.392;2022-12-18T16:29:08;-2.80;48.00
10901;DHT22;5503;53.208;10.392;2022-12-18T16:34:15;-2.80;1.00
10901;DHT22;5503;53.208;10.392;2022-12-18T16:41:38;-3.10;95.60
10901;DHT22;5503;53.208;10.392;2022-12-18T16:49:00;-2.90;94.00
10901;DHT22;5503;53.208;10.392;2022-12-18T16:51:28;-2.70;1.00
10901;DHT22;5503;53.208;10.392;2022-12-18T16:54:01;-2.60;1.00
10901;DHT22;5503;53.208;10.392;2022-12-18T16:56:29;-3.10;58.70
10901;DHT22;5503;53.208;10.392;2022-12-18T16:58:58;-3.00;99.90
10901;DHT22;5503;53.208;10.392;2022-12-18T17:01:27;0.30;58.10
10901;DHT22;5503;53.208;10.392;2022-12-18T17:03:56;-3.00;81.60
10901;DHT22;5503;53.208;10.392;2022-12-18T17:06:24;-3.00;32.50
10901;DHT22;5503;53.208;10.392;2022-12-18T17:08:55;-2.90;3.00
10901;DHT22;5503;53.208;10.392;2022-12-18T17:11:26;-2.90;5.90
10901;DHT22;5503;53.208;10.392;2022-12-18T17:23:43;-3.00;99.90
10901;DHT22;5503;53.208;10.392;2022-12-18T17:26:12;-2.80;48.80
10901;DHT22;5503;53.208;10.392;2022-12-18T17:28:40;-2.90;99.90
10901;DHT22;5503;53.208;10.392;2022-12-18T17:31:10;-3.00;88.20
10901;DHT22;5503;53.208;10.392;2022-12-18T17:41:00;-2.90;99.90
10901;DHT22;5503;53.208;10.392;2022-12-18T17:43:28;-2.90;78.00
10901;DHT22;5503;53.208;10.392;2022-12-18T17:53:17;-2.80;1.00
10901;DHT22;5503;53.208;10.392;2022-12-18T17:55:52;-2.70;1.00
10901;DHT22;5503;53.208;10.392;2022-12-18T17:58:19;-2.60;1.00
10901;DHT22;5503;53.208;10.392;2022-12-18T18:00:48;-2.60;1.00
10901;DHT22;5503;53.208;10.392;2022-12-18T18:10:38;-2.70;99.90
10901;DHT22;5503;53.208;10.392;2022-12-18T18:13:17;-2.90;99.90
10901;DHT22;5503;53.208;10.392;2022-12-18T18:16:04;-2.70;99.90
10901;DHT22;5503;53.208;10.392;2022-12-18T18:18:31;-2.60;68.00
10901;DHT22;5503;53.208;10.392;2022-12-18T18:23:25;-2.80;99.90
10901;DHT22;5503;53.208;10.392;2022-12-18T18:30:50;-2.70;99.90
10901;DHT22;5503;53.208;10.392;2022-12-18T18:33:18;-2.80;99.90
10901;DHT22;5503;53.208;10.392;2022-12-18T18:50:29;-3.00;99.90
10901;DHT22;5503;53.208;10.392;2022-12-18T19:07:41;-3.00;99.90
10901;DHT22;5503;53.208;10.392;2022-12-18T19:10:09;-2.90;99.90
10901;DHT22;5503;53.208;10.392;2022-12-18T19:22:44;-2.90;99.90
10901;DHT22;5503;53.208;10.392;2022-12-18T19:27:38;-2.80;1.00
10901;DHT22;5503;53.208;10.392;2022-12-18T19:30:05;-2.90;1.00
10901;DHT22;5503;53.208;10.392;2022-12-18T19:35:00;-2.90;1.00
10901;DHT22;5503;53.208;10.392;2022-12-18T19:37:27;-2.90;1.00
10901;DHT22;5503;53.208;10.392;2022-12-18T19:39:55;-2.90;99.90
10901;DHT22;5503;53.208;10.392;2022-12-18T19:57:09;-2.70;1.00
10901;DHT22;5503;53.208;10.392;2022-12-18T20:14:22;-2.80;1.00
10901;DHT22;5503;53.208;10.392;2022-12-18T20:26:38;-2.70;40.80
10901;DHT22;5503;53.208;10.392;2022-12-18T20:29:06;-2.50;1.00
10901;DHT22;5503;53.208;10.392;2022-12-18T20:31:34;-2.70;1.00
10901;DHT22;5503;53.208;10.392;2022-12-18T20:43:50;-2.70;99.90
10901;DHT22;5503;53.208;10.392;2022-12-18T20:46:17;-2.70;99.90
10901;DHT22;5503;53.208;10.392;2022-12-18T20:48:46;-2.60;99.90
10901;DHT22;5503;53.208;10.392;2022-12-18T20:51:15;-2.50;1.00
10901;DHT22;5503;53.208;10.392;2022-12-18T20:56:12;-2.60;1.00
10901;DHT22;5503;53.208;10.392;2022-12-18T20:58:40;-2.40;4.60
10901;DHT22;5503;53.208;10.392;2022-12-18T21:01:09;-2.40;1.00
10901;DHT22;5503;53.208;10.392;2022-12-18T21:06:06;-2.50;1.00
10901;DHT22;5503;53.208;10.392;2022-12-18T21:11:15;-2.50;1.00
10901;DHT22;5503;53.208;10.392;2022-12-18T21:21:19;-2.40;99.90
10901;DHT22;5503;53.208;10.392;2022-12-18T21:26:17;-2.40;99.90
10901;DHT22;5503;53.208;10.392;2022-12-18T21:28:45;-2.50;1.00
10901;DHT22;5503;53.208;10.392;2022-12-18T21:31:12;-2.40;1.00
10901;DHT22;5503;53.208;10.392;2022-12-18T21:36:07;-2.40;99.90
10901;DHT22;5503;53.208;10.392;2022-12-18T21:38:35;-2.50;99.90
10901;DHT22;5503;53.208;10.392;2022-12-18T21:41:05;-2.50;99.90
10901;DHT22;5503;53.208;10.392;2022-12-18T21:53:40;-2.10;1.00
10901;DHT22;5503;53.208;10.392;2022-12-18T22:05:56;-2.30;1.00
10901;DHT22;5503;53.208;10.392;2022-12-18T22:08:24;-2.40;1.00
10901;DHT22;5503;53.208;10.392;2022-12-18T22:10:52;-2.40;1.00
10901;DHT22;5503;53.208;10.392;2022-12-18T22:28:04;-2.30;1.00
10901;DHT22;5503;53.208;10.392;2022-12-18T22:38:10;-2.30;1.00
10901;DHT22;5503;53.208;10.392;2022-12-18T22:43:05;-2.30;1.00
10901;DHT22;5503;53.208;10.392;2022-12-18T23:00:21;-2.30;1.00
10901;DHT22;5503;53.208;10.392;2022-12-18T23:15:04;1.10;99.90
10901;DHT22;5503;53.208;10.392;2022-12-18T23:17:33;-2.20;99.90
10901;DHT22;5503;53.208;10.392;2022-12-18T23:20:00;-2.30;1.00
10901;DHT22;5503;53.208;10.392;2022-12-18T23:22:29;-2.10;99.90
10901;DHT22;5503;53.208;10.392;2022-12-18T23:34:46;-2.10;1.00
10901;DHT22;5503;53.208;10.392;2022-12-18T23:47:04;-2.10;1.00
10901;DHT22;5503;53.208;10.392;2022-12-18T23:52:01;-2.20;1.00
